sensor_id;sensor_type;location;lat;lon;timestamp;pressure;altitude;pressure_sealevel;temperature
7389;BMP180;3735;50.136;11.062;2023-05-19T00:01:42;98909.00;;;9.10
7389;BMP180;3735;50.136;11.062;2023-05-19T00:04:13;98915.00;;;8.90
7389;BMP180;3735;50.136;11.062;2023-05-19T00:06:40;98923.00;;;8.70
7389;BMP180;3735;50.136;11.062;2023-05-19T00:09:08;98922.00;;;8.60
7389;BMP180;3735;50.136;11.062;2023-05-19T00:11:36;98921.00;;;8.40
7389;BMP180;3735;50.136;11.062;2023-05-19T00:14:06;98919.00;;;8.30
7389;BMP180;3735;50.136;11.062;2023-05-19T00:16:32;98923.00;;;8.20
7389;BMP180;3735;50.136;11.062;2023-05-19T00:19:01;98919.00;;;8.20
7389;BMP180;3735;50.136;11.062;2023-05-19T00:21:29;98915.00;;;8.10
7389;BMP180;3735;50.136;11.062;2023-05-19T00:23:56;98908.00;;;8.10
7389;BMP180;3735;50.136;11.062;2023-05-19T00:26:22;98914.00;;;8.10
7389;BMP180;3735;50.136;11.062;2023-05-19T00:28:49;98915.00;;;8.20
7389;BMP180;3735;50.136;11.062;2023-05-19T00:31:15;98911.00;;;8.20
7389;BMP180;3735;50.136;11.062;2023-05-19T00:33:41;98899.00;;;8.30
7389;BMP180;3735;50.136;11.062;2023-05-19T00:36:07;98902.00;;;8.40
7389;BMP180;3735;50.136;11.062;2023-05-19T00:38:35;98900.00;;;8.50
7389;BMP180;3735;50.136;11.062;2023-05-19T00:41:03;98897.00;;;8.50
7389;BMP180;3735;50.136;11.062;2023-05-19T00:43:29;98889.00;;;8.60
7389;BMP180;3735;50.136;11.062;2023-05-19T00:45:56;98901.00;;;8.60
7389;BMP180;3735;50.136;11.062;2023-05-19T00:48:24;98898.00;;;8.70
7389;BMP180;3735;50.136;11.062;2023-05-19T00:50:52;98898.00;;;8.70
7389;BMP180;3735;50.136;11.062;2023-05-19T00:53:20;98893.00;;;8.80
7389;BMP180;3735;50.136;11.062;2023-05-19T00:55:47;98873.00;;;8.80
7389;BMP180;3735;50.136;11.062;2023-05-19T00:58:13;98887.00;;;8.80
7389;BMP180;3735;50.136;11.062;2023-05-19T01:00:40;98879.00;;;8.90
7389;BMP180;3735;50.136;11.062;2023-05-19T01:03:07;98881.00;;;8.90
7389;BMP180;3735;50.136;11.062;2023-05-19T01:05:41;98887.00;;;8.90
7389;BMP180;3735;50.136;11.062;2023-05-19T01:08:07;98880.00;;;8.90
7389;BMP180;3735;50.136;11.062;2023-05-19T01:10:33;98889.00;;;9.00
7389;BMP180;3735;50.136;11.062;2023-05-19T01:13:02;98879.00;;;9.00
7389;BMP180;3735;50.136;11.062;2023-05-19T01:15:30;98884.00;;;9.00
7389;BMP180;3735;50.136;11.062;2023-05-19T01:18:14;98879.00;;;9.00
7389;BMP180;3735;50.136;11.062;2023-05-19T01:20:57;98879.00;;;9.00
7389;BMP180;3735;50.136;11.062;2023-05-19T01:30:41;98882.00;;;9.10
7389;BMP180;3735;50.136;11.062;2023-05-19T01:33:11;98869.00;;;9.10
7389;BMP180;3735;50.136;11.062;2023-05-19T01:35:40;98877.00;;;9.00
7389;BMP180;3735;50.136;11.062;2023-05-19T01:38:10;98882.00;;;9.00
7389;BMP180;3735;50.136;11.062;2023-05-19T01:40:38;98869.00;;;9.00
7389;BMP180;3735;50.136;11.062;2023-05-19T01:43:09;98881.00;;;8.90
7389;BMP180;3735;50.136;11.062;2023-05-19T01:45:37;98863.00;;;8.80
7389;BMP180;3735;50.136;11.062;2023-05-19T01:48:04;98883.00;;;8.70
7389;BMP180;3735;50.136;11.062;2023-05-19T01:50:31;98878.00;;;8.50
7389;BMP180;3735;50.136;11.062;2023-05-19T01:52:58;98885.00;;;8.40
7389;BMP180;3735;50.136;11.062;2023-05-19T01:55:25;98883.00;;;8.20
7389;BMP180;3735;50.136;11.062;2023-05-19T01:58:46;98880.00;;;8.00
7389;BMP180;3735;50.136;11.062;2023-05-19T02:15:14;98877.00;;;7.40
7389;BMP180;3735;50.136;11.062;2023-05-19T02:17:43;98864.00;;;7.30
7389;BMP180;3735;50.136;11.062;2023-05-19T02:20:17;98870.00;;;7.30
7389;BMP180;3735;50.136;11.062;2023-05-19T02:22:44;98873.00;;;7.20
7389;BMP180;3735;50.136;11.062;2023-05-19T02:25:10;98875.00;;;7.20
7389;BMP180;3735;50.136;11.062;2023-05-19T02:27:37;98863.00;;;7.20
7389;BMP180;3735;50.136;11.062;2023-05-19T02:30:05;98862.00;;;7.10
7389;BMP180;3735;50.136;11.062;2023-05-19T02:32:31;98860.00;;;7.10
7389;BMP180;3735;50.136;11.062;2023-05-19T02:34:57;98864.00;;;7.10
7389;BMP180;3735;50.136;11.062;2023-05-19T02:37:23;98865.00;;;7.00
7389;BMP180;3735;50.136;11.062;2023-05-19T02:39:49;98862.00;;;7.00
7389;BMP180;3735;50.136;11.062;2023-05-19T02:42:15;98864.00;;;7.00
7389;BMP180;3735;50.136;11.062;2023-05-19T02:44:44;98856.00;;;6.90
7389;BMP180;3735;50.136;11.062;2023-05-19T02:47:11;98855.00;;;7.00
7389;BMP180;3735;50.136;11.062;2023-05-19T02:49:36;98854.00;;;7.00
7389;BMP180;3735;50.136;11.062;2023-05-19T02:52:06;98853.00;;;6.90
7389;BMP180;3735;50.136;11.062;2023-05-19T02:54:33;98851.00;;;6.90
7389;BMP180;3735;50.136;11.062;2023-05-19T02:56:59;98836.00;;;6.90
7389;BMP180;3735;50.136;11.062;2023-05-19T02:59:25;98839.00;;;6.90
7389;BMP180;3735;50.136;11.062;2023-05-19T03:01:58;98858.00;;;6.90
7389;BMP180;3735;50.136;11.062;2023-05-19T03:04:24;98843.00;;;6.90
7389;BMP180;3735;50.136;11.062;2023-05-19T03:06:50;98847.00;;;6.90
7389;BMP180;3735;50.136;11.062;2023-05-19T03:09:16;98850.00;;;7.00
7389;BMP180;3735;50.136;11.062;2023-05-19T03:11:41;98850.00;;;7.00
7389;BMP180;3735;50.136;11.062;2023-05-19T03:14:07;98858.00;;;7.10
7389;BMP180;3735;50.136;11.062;2023-05-19T03:16:36;98843.00;;;7.10
7389;BMP180;3735;50.136;11.062;2023-05-19T03:19:02;98855.00;;;7.10
7389;BMP180;3735;50.136;11.062;2023-05-19T03:21:28;98853.00;;;7.10
7389;BMP180;3735;50.136;11.062;2023-05-19T03:23:54;98850.00;;;7.10
7389;BMP180;3735;50.136;11.062;2023-05-19T03:26:20;98843.00;;;7.00
7389;BMP180;3735;50.136;11.062;2023-05-19T03:28:47;98849.00;;;7.00
7389;BMP180;3735;50.136;11.062;2023-05-19T03:31:13;98857.00;;;7.00
7389;BMP180;3735;50.136;11.062;2023-05-19T03:33:38;98853.00;;;7.10
7389;BMP180;3735;50.136;11.062;2023-05-19T03:36:05;98845.00;;;7.10
7389;BMP180;3735;50.136;11.062;2023-05-19T03:38:31;98851.00;;;7.10
7389;BMP180;3735;50.136;11.062;2023-05-19T03:40:56;98858.00;;;7.10
7389;BMP180;3735;50.136;11.062;2023-05-19T03:43:22;98852.00;;;6.90
7389;BMP180;3735;50.136;11.062;2023-05-19T03:45:48;98860.00;;;7.20
7389;BMP180;3735;50.136;11.062;2023-05-19T03:48:14;98855.00;;;7.20
7389;BMP180;3735;50.136;11.062;2023-05-19T03:50:40;98860.00;;;7.20
7389;BMP180;3735;50.136;11.062;2023-05-19T03:53:07;98867.00;;;7.30
7389;BMP180;3735;50.136;11.062;2023-05-19T03:55:32;98860.00;;;7.30
7389;BMP180;3735;50.136;11.062;2023-05-19T03:57:59;98868.00;;;7.40
7389;BMP180;3735;50.136;11.062;2023-05-19T04:00:24;98865.00;;;7.50
7389;BMP180;3735;50.136;11.062;2023-05-19T04:02:50;98861.00;;;7.60
7389;BMP180;3735;50.136;11.062;2023-05-19T04:05:16;98863.00;;;7.60
7389;BMP180;3735;50.136;11.062;2023-05-19T04:07:42;98863.00;;;7.70
7389;BMP180;3735;50.136;11.062;2023-05-19T04:10:08;98859.00;;;7.70
7389;BMP180;3735;50.136;11.062;2023-05-19T04:12:34;98857.00;;;7.90
7389;BMP180;3735;50.136;11.062;2023-05-19T04:15:00;98863.00;;;8.00
7389;BMP180;3735;50.136;11.062;2023-05-19T04:17:26;98859.00;;;8.10
7389;BMP180;3735;50.136;11.062;2023-05-19T04:19:52;98861.00;;;8.30
7389;BMP180;3735;50.136;11.062;2023-05-19T04:22:19;98826.00;;;8.40
7389;BMP180;3735;50.136;11.062;2023-05-19T04:24:45;98863.00;;;8.60
7389;BMP180;3735;50.136;11.062;2023-05-19T04:27:11;98860.00;;;8.80
7389;BMP180;3735;50.136;11.062;2023-05-19T04:29:38;98839.00;;;8.90
7389;BMP180;3735;50.136;11.062;2023-05-19T04:32:05;98861.00;;;9.00
7389;BMP180;3735;50.136;11.062;2023-05-19T04:34:31;98856.00;;;9.10
7389;BMP180;3735;50.136;11.062;2023-05-19T04:36:58;98857.00;;;9.30
7389;BMP180;3735;50.136;11.062;2023-05-19T04:39:23;98851.00;;;9.40
7389;BMP180;3735;50.136;11.062;2023-05-19T04:41:50;98859.00;;;9.60
7389;BMP180;3735;50.136;11.062;2023-05-19T04:44:15;98855.00;;;9.70
7389;BMP180;3735;50.136;11.062;2023-05-19T04:46:43;98854.00;;;9.90
7389;BMP180;3735;50.136;11.062;2023-05-19T04:49:10;98854.00;;;10.10
7389;BMP180;3735;50.136;11.062;2023-05-19T04:51:40;98856.00;;;10.30
7389;BMP180;3735;50.136;11.062;2023-05-19T04:54:08;98857.00;;;10.70
7389;BMP180;3735;50.136;11.062;2023-05-19T04:56:35;98853.00;;;11.00
7389;BMP180;3735;50.136;11.062;2023-05-19T04:59:01;98849.00;;;11.30
7389;BMP180;3735;50.136;11.062;2023-05-19T05:01:27;98855.00;;;11.80
7389;BMP180;3735;50.136;11.062;2023-05-19T05:03:54;98849.00;;;12.30
7389;BMP180;3735;50.136;11.062;2023-05-19T05:06:23;98856.00;;;12.70
7389;BMP180;3735;50.136;11.062;2023-05-19T05:08:49;98855.00;;;13.00
7389;BMP180;3735;50.136;11.062;2023-05-19T05:11:16;98849.00;;;12.90
7389;BMP180;3735;50.136;11.062;2023-05-19T05:13:42;98849.00;;;12.70
7389;BMP180;3735;50.136;11.062;2023-05-19T05:16:09;98837.00;;;12.70
7389;BMP180;3735;50.136;11.062;2023-05-19T05:18:35;98845.00;;;12.40
7389;BMP180;3735;50.136;11.062;2023-05-19T05:21:04;98837.00;;;12.60
7389;BMP180;3735;50.136;11.062;2023-05-19T05:23:30;98833.00;;;12.50
7389;BMP180;3735;50.136;11.062;2023-05-19T05:25:56;98830.00;;;12.40
7389;BMP180;3735;50.136;11.062;2023-05-19T05:28:22;98828.00;;;12.30
7389;BMP180;3735;50.136;11.062;2023-05-19T05:30:48;98835.00;;;12.30
7389;BMP180;3735;50.136;11.062;2023-05-19T05:33:15;98837.00;;;12.20
7389;BMP180;3735;50.136;11.062;2023-05-19T05:35:42;98833.00;;;12.20
7389;BMP180;3735;50.136;11.062;2023-05-19T05:38:08;98829.00;;;12.40
7389;BMP180;3735;50.136;11.062;2023-05-19T05:40:35;98825.00;;;12.40
7389;BMP180;3735;50.136;11.062;2023-05-19T05:43:01;98830.00;;;12.20
7389;BMP180;3735;50.136;11.062;2023-05-19T05:45:27;98837.00;;;12.20
7389;BMP180;3735;50.136;11.062;2023-05-19T05:47:53;98822.00;;;12.40
7389;BMP180;3735;50.136;11.062;2023-05-19T05:50:19;98837.00;;;12.50
7389;BMP180;3735;50.136;11.062;2023-05-19T05:52:46;98826.00;;;12.70
7389;BMP180;3735;50.136;11.062;2023-05-19T05:55:14;98837.00;;;12.80
7389;BMP180;3735;50.136;11.062;2023-05-19T05:57:40;98836.00;;;12.90
7389;BMP180;3735;50.136;11.062;2023-05-19T06:00:09;98831.00;;;13.30
7389;BMP180;3735;50.136;11.062;2023-05-19T06:02:50;98827.00;;;13.70
7389;BMP180;3735;50.136;11.062;2023-05-19T06:05:16;98826.00;;;13.90
7389;BMP180;3735;50.136;11.062;2023-05-19T06:07:42;98829.00;;;14.00
7389;BMP180;3735;50.136;11.062;2023-05-19T06:10:09;98825.00;;;14.10
7389;BMP180;3735;50.136;11.062;2023-05-19T06:12:35;98829.00;;;13.80
7389;BMP180;3735;50.136;11.062;2023-05-19T06:15:05;98839.00;;;13.90
7389;BMP180;3735;50.136;11.062;2023-05-19T06:17:31;98839.00;;;13.90
7389;BMP180;3735;50.136;11.062;2023-05-19T06:19:58;98843.00;;;14.20
7389;BMP180;3735;50.136;11.062;2023-05-19T06:22:24;98835.00;;;14.30
7389;BMP180;3735;50.136;11.062;2023-05-19T06:24:50;98829.00;;;14.30
7389;BMP180;3735;50.136;11.062;2023-05-19T06:27:16;98825.00;;;14.60
7389;BMP180;3735;50.136;11.062;2023-05-19T06:29:41;98824.00;;;14.70
7389;BMP180;3735;50.136;11.062;2023-05-19T06:32:07;98817.00;;;14.70
7389;BMP180;3735;50.136;11.062;2023-05-19T06:34:33;98817.00;;;15.10
7389;BMP180;3735;50.136;11.062;2023-05-19T06:36:59;98813.00;;;15.60
7389;BMP180;3735;50.136;11.062;2023-05-19T06:39:27;98821.00;;;16.00
7389;BMP180;3735;50.136;11.062;2023-05-19T06:41:52;98824.00;;;16.30
7389;BMP180;3735;50.136;11.062;2023-05-19T06:44:18;98815.00;;;16.50
7389;BMP180;3735;50.136;11.062;2023-05-19T06:46:44;98816.00;;;16.80
7389;BMP180;3735;50.136;11.062;2023-05-19T06:49:10;98806.00;;;17.20
7389;BMP180;3735;50.136;11.062;2023-05-19T06:51:36;98812.00;;;17.90
7389;BMP180;3735;50.136;11.062;2023-05-19T06:54:01;98811.00;;;18.40
7389;BMP180;3735;50.136;11.062;2023-05-19T06:56:27;98808.00;;;18.20
7389;BMP180;3735;50.136;11.062;2023-05-19T06:58:53;98801.00;;;18.80
7389;BMP180;3735;50.136;11.062;2023-05-19T07:01:19;98799.00;;;19.90
7389;BMP180;3735;50.136;11.062;2023-05-19T07:03:45;98800.00;;;20.50
7389;BMP180;3735;50.136;11.062;2023-05-19T07:06:11;98803.00;;;20.90
7389;BMP180;3735;50.136;11.062;2023-05-19T07:08:37;98802.00;;;21.10
7389;BMP180;3735;50.136;11.062;2023-05-19T07:11:03;98802.00;;;21.10
7389;BMP180;3735;50.136;11.062;2023-05-19T07:13:30;98802.00;;;21.50
7389;BMP180;3735;50.136;11.062;2023-05-19T07:15:57;98799.00;;;21.50
7389;BMP180;3735;50.136;11.062;2023-05-19T07:18:23;98797.00;;;21.90
7389;BMP180;3735;50.136;11.062;2023-05-19T07:20:51;98795.00;;;22.10
7389;BMP180;3735;50.136;11.062;2023-05-19T07:23:18;98788.00;;;22.50
7389;BMP180;3735;50.136;11.062;2023-05-19T07:25:44;98795.00;;;23.60
7389;BMP180;3735;50.136;11.062;2023-05-19T07:28:09;98792.00;;;23.80
7389;BMP180;3735;50.136;11.062;2023-05-19T07:30:35;98795.00;;;23.70
7389;BMP180;3735;50.136;11.062;2023-05-19T07:33:01;98792.00;;;23.90
7389;BMP180;3735;50.136;11.062;2023-05-19T07:35:27;98784.00;;;24.60
7389;BMP180;3735;50.136;11.062;2023-05-19T07:37:52;98782.00;;;25.20
7389;BMP180;3735;50.136;11.062;2023-05-19T07:40:18;98785.00;;;24.70
7389;BMP180;3735;50.136;11.062;2023-05-19T07:42:44;98783.00;;;24.60
7389;BMP180;3735;50.136;11.062;2023-05-19T07:45:10;98777.00;;;24.80
7389;BMP180;3735;50.136;11.062;2023-05-19T07:47:36;98769.00;;;25.00
7389;BMP180;3735;50.136;11.062;2023-05-19T07:50:02;98773.00;;;25.10
7389;BMP180;3735;50.136;11.062;2023-05-19T07:52:28;98771.00;;;24.80
7389;BMP180;3735;50.136;11.062;2023-05-19T07:54:54;98767.00;;;25.50
7389;BMP180;3735;50.136;11.062;2023-05-19T07:57:20;98777.00;;;25.30
7389;BMP180;3735;50.136;11.062;2023-05-19T07:59:46;98772.00;;;25.60
7389;BMP180;3735;50.136;11.062;2023-05-19T08:02:12;98776.00;;;25.70
7389;BMP180;3735;50.136;11.062;2023-05-19T08:04:38;98769.00;;;25.80
7389;BMP180;3735;50.136;11.062;2023-05-19T08:07:03;98766.00;;;25.00
7389;BMP180;3735;50.136;11.062;2023-05-19T08:09:29;98766.00;;;24.60
7389;BMP180;3735;50.136;11.062;2023-05-19T08:11:55;98754.00;;;24.40
7389;BMP180;3735;50.136;11.062;2023-05-19T08:14:21;98765.00;;;24.40
7389;BMP180;3735;50.136;11.062;2023-05-19T08:16:48;98765.00;;;24.70
7389;BMP180;3735;50.136;11.062;2023-05-19T08:19:14;98762.00;;;24.80
7389;BMP180;3735;50.136;11.062;2023-05-19T08:21:40;98763.00;;;25.30
7389;BMP180;3735;50.136;11.062;2023-05-19T08:24:07;98769.00;;;25.30
7389;BMP180;3735;50.136;11.062;2023-05-19T08:26:33;98755.00;;;24.80
7389;BMP180;3735;50.136;11.062;2023-05-19T08:28:59;98762.00;;;24.40
7389;BMP180;3735;50.136;11.062;2023-05-19T08:31:25;98754.00;;;25.50
7389;BMP180;3735;50.136;11.062;2023-05-19T08:33:51;98746.00;;;25.20
7389;BMP180;3735;50.136;11.062;2023-05-19T08:36:17;98747.00;;;25.10
7389;BMP180;3735;50.136;11.062;2023-05-19T08:38:43;98747.00;;;25.30
7389;BMP180;3735;50.136;11.062;2023-05-19T08:41:09;98748.00;;;25.30
7389;BMP180;3735;50.136;11.062;2023-05-19T08:43:36;98742.00;;;25.90
7389;BMP180;3735;50.136;11.062;2023-05-19T08:46:03;98732.00;;;25.50
7389;BMP180;3735;50.136;11.062;2023-05-19T08:48:29;98742.00;;;25.90
7389;BMP180;3735;50.136;11.062;2023-05-19T08:51:13;98744.00;;;25.60
7389;BMP180;3735;50.136;11.062;2023-05-19T08:53:47;98735.00;;;25.90
7389;BMP180;3735;50.136;11.062;2023-05-19T08:56:20;98737.00;;;26.20
7389;BMP180;3735;50.136;11.062;2023-05-19T08:58:49;98728.00;;;25.30
7389;BMP180;3735;50.136;11.062;2023-05-19T09:01:18;98714.00;;;24.60
7389;BMP180;3735;50.136;11.062;2023-05-19T09:03:46;98716.00;;;25.00
7389;BMP180;3735;50.136;11.062;2023-05-19T09:06:14;98715.00;;;26.40
7389;BMP180;3735;50.136;11.062;2023-05-19T09:08:41;98717.00;;;25.90
7389;BMP180;3735;50.136;11.062;2023-05-19T09:11:11;98711.00;;;26.50
7389;BMP180;3735;50.136;11.062;2023-05-19T09:13:37;98705.00;;;26.40
7389;BMP180;3735;50.136;11.062;2023-05-19T09:16:04;98707.00;;;27.20
7389;BMP180;3735;50.136;11.062;2023-05-19T09:18:30;98703.00;;;27.40
7389;BMP180;3735;50.136;11.062;2023-05-19T09:21:00;98698.00;;;27.20
7389;BMP180;3735;50.136;11.062;2023-05-19T09:23:31;98703.00;;;26.60
7389;BMP180;3735;50.136;11.062;2023-05-19T09:26:03;98700.00;;;25.90
7389;BMP180;3735;50.136;11.062;2023-05-19T09:28:34;98699.00;;;26.20
7389;BMP180;3735;50.136;11.062;2023-05-19T09:31:08;98705.00;;;26.30
7389;BMP180;3735;50.136;11.062;2023-05-19T09:33:39;98703.00;;;26.30
7389;BMP180;3735;50.136;11.062;2023-05-19T09:36:06;98704.00;;;25.70
7389;BMP180;3735;50.136;11.062;2023-05-19T09:38:34;98691.00;;;26.20
7389;BMP180;3735;50.136;11.062;2023-05-19T09:41:01;98692.00;;;27.30
7389;BMP180;3735;50.136;11.062;2023-05-19T09:43:28;98693.00;;;26.90
7389;BMP180;3735;50.136;11.062;2023-05-19T09:45:59;98692.00;;;27.90
7389;BMP180;3735;50.136;11.062;2023-05-19T09:48:26;98699.00;;;27.00
7389;BMP180;3735;50.136;11.062;2023-05-19T09:50:55;98681.00;;;26.50
7389;BMP180;3735;50.136;11.062;2023-05-19T09:53:23;98678.00;;;26.00
7389;BMP180;3735;50.136;11.062;2023-05-19T09:55:54;98680.00;;;25.40
7389;BMP180;3735;50.136;11.062;2023-05-19T09:58:22;98683.00;;;25.60
7389;BMP180;3735;50.136;11.062;2023-05-19T10:00:50;98679.00;;;25.50
7389;BMP180;3735;50.136;11.062;2023-05-19T10:03:17;98672.00;;;25.20
7389;BMP180;3735;50.136;11.062;2023-05-19T10:05:44;98683.00;;;24.20
7389;BMP180;3735;50.136;11.062;2023-05-19T10:08:11;98685.00;;;24.00
7389;BMP180;3735;50.136;11.062;2023-05-19T10:10:38;98685.00;;;24.20
7389;BMP180;3735;50.136;11.062;2023-05-19T10:13:04;98680.00;;;24.10
7389;BMP180;3735;50.136;11.062;2023-05-19T10:15:31;98683.00;;;24.00
7389;BMP180;3735;50.136;11.062;2023-05-19T10:17:59;98687.00;;;24.30
7389;BMP180;3735;50.136;11.062;2023-05-19T10:20:25;98686.00;;;24.50
7389;BMP180;3735;50.136;11.062;2023-05-19T10:22:52;98682.00;;;24.30
7389;BMP180;3735;50.136;11.062;2023-05-19T10:25:17;98685.00;;;24.20
7389;BMP180;3735;50.136;11.062;2023-05-19T10:28:15;98676.00;;;24.10
7389;BMP180;3735;50.136;11.062;2023-05-19T10:30:48;98673.00;;;23.90
7389;BMP180;3735;50.136;11.062;2023-05-19T10:33:18;98682.00;;;24.20
7389;BMP180;3735;50.136;11.062;2023-05-19T10:35:49;98679.00;;;23.90
7389;BMP180;3735;50.136;11.062;2023-05-19T10:41:07;98682.00;;;23.50
7389;BMP180;3735;50.136;11.062;2023-05-19T10:46:11;98668.00;;;24.60
7389;BMP180;3735;50.136;11.062;2023-05-19T10:48:37;98656.00;;;24.90
7389;BMP180;3735;50.136;11.062;2023-05-19T10:51:03;98663.00;;;25.30
7389;BMP180;3735;50.136;11.062;2023-05-19T10:53:31;98662.00;;;25.50
7389;BMP180;3735;50.136;11.062;2023-05-19T10:56:00;98661.00;;;25.30
7389;BMP180;3735;50.136;11.062;2023-05-19T11:01:15;98661.00;;;26.10
7389;BMP180;3735;50.136;11.062;2023-05-19T11:03:49;98659.00;;;26.40
7389;BMP180;3735;50.136;11.062;2023-05-19T11:06:33;98660.00;;;26.90
7389;BMP180;3735;50.136;11.062;2023-05-19T11:09:16;98652.00;;;26.80
7389;BMP180;3735;50.136;11.062;2023-05-19T11:11:51;98658.00;;;26.60
7389;BMP180;3735;50.136;11.062;2023-05-19T11:14:25;98660.00;;;26.20
7389;BMP180;3735;50.136;11.062;2023-05-19T11:16:56;98652.00;;;26.40
7389;BMP180;3735;50.136;11.062;2023-05-19T11:19:33;98650.00;;;27.00
7389;BMP180;3735;50.136;11.062;2023-05-19T11:22:10;98651.00;;;27.60
7389;BMP180;3735;50.136;11.062;2023-05-19T11:24:44;98645.00;;;26.80
7389;BMP180;3735;50.136;11.062;2023-05-19T11:27:34;98635.00;;;26.50
7389;BMP180;3735;50.136;11.062;2023-05-19T11:30:08;98651.00;;;26.70
7389;BMP180;3735;50.136;11.062;2023-05-19T11:32:39;98640.00;;;26.40
7389;BMP180;3735;50.136;11.062;2023-05-19T11:35:09;98644.00;;;26.20
7389;BMP180;3735;50.136;11.062;2023-05-19T11:37:35;98636.00;;;26.60
7389;BMP180;3735;50.136;11.062;2023-05-19T11:40:05;98645.00;;;26.70
7389;BMP180;3735;50.136;11.062;2023-05-19T11:42:35;98657.00;;;25.70
7389;BMP180;3735;50.136;11.062;2023-05-19T11:45:02;98645.00;;;25.70
7389;BMP180;3735;50.136;11.062;2023-05-19T11:47:30;98636.00;;;26.00
7389;BMP180;3735;50.136;11.062;2023-05-19T11:49:57;98642.00;;;25.50
7389;BMP180;3735;50.136;11.062;2023-05-19T11:52:24;98648.00;;;25.20
7389;BMP180;3735;50.136;11.062;2023-05-19T11:54:50;98648.00;;;25.50
7389;BMP180;3735;50.136;11.062;2023-05-19T11:57:17;98638.00;;;26.10
7389;BMP180;3735;50.136;11.062;2023-05-19T11:59:42;98643.00;;;26.10
7389;BMP180;3735;50.136;11.062;2023-05-19T12:02:23;98643.00;;;25.60
7389;BMP180;3735;50.136;11.062;2023-05-19T12:04:50;98644.00;;;24.20
7389;BMP180;3735;50.136;11.062;2023-05-19T12:07:19;98628.00;;;25.00
7389;BMP180;3735;50.136;11.062;2023-05-19T12:09:49;98640.00;;;25.00
7389;BMP180;3735;50.136;11.062;2023-05-19T12:12:21;98627.00;;;25.40
7389;BMP180;3735;50.136;11.062;2023-05-19T12:14:50;98624.00;;;26.10
7389;BMP180;3735;50.136;11.062;2023-05-19T12:17:18;98632.00;;;25.80
7389;BMP180;3735;50.136;11.062;2023-05-19T12:19:47;98639.00;;;25.10
7389;BMP180;3735;50.136;11.062;2023-05-19T12:22:15;98631.00;;;25.30
7389;BMP180;3735;50.136;11.062;2023-05-19T12:24:42;98628.00;;;26.10
7389;BMP180;3735;50.136;11.062;2023-05-19T12:27:22;98629.00;;;25.40
7389;BMP180;3735;50.136;11.062;2023-05-19T12:29:50;98635.00;;;25.80
7389;BMP180;3735;50.136;11.062;2023-05-19T12:32:17;98624.00;;;25.30
7389;BMP180;3735;50.136;11.062;2023-05-19T12:34:43;98621.00;;;25.70
7389;BMP180;3735;50.136;11.062;2023-05-19T12:37:09;98625.00;;;26.10
7389;BMP180;3735;50.136;11.062;2023-05-19T12:39:36;98630.00;;;26.30
7389;BMP180;3735;50.136;11.062;2023-05-19T12:42:10;98634.00;;;26.70
7389;BMP180;3735;50.136;11.062;2023-05-19T12:44:47;98632.00;;;25.50
7389;BMP180;3735;50.136;11.062;2023-05-19T12:47:18;98630.00;;;24.20
7389;BMP180;3735;50.136;11.062;2023-05-19T12:52:27;98638.00;;;23.30
7389;BMP180;3735;50.136;11.062;2023-05-19T12:55:02;98631.00;;;23.30
7389;BMP180;3735;50.136;11.062;2023-05-19T12:57:29;98627.00;;;24.40
7389;BMP180;3735;50.136;11.062;2023-05-19T13:00:19;98623.00;;;24.20
7389;BMP180;3735;50.136;11.062;2023-05-19T13:03:05;98619.00;;;24.50
7389;BMP180;3735;50.136;11.062;2023-05-19T13:05:35;98620.00;;;23.80
7389;BMP180;3735;50.136;11.062;2023-05-19T13:08:13;98608.00;;;23.10
7389;BMP180;3735;50.136;11.062;2023-05-19T13:10:42;98610.00;;;22.90
7389;BMP180;3735;50.136;11.062;2023-05-19T13:13:09;98588.00;;;23.30
7389;BMP180;3735;50.136;11.062;2023-05-19T13:15:39;98604.00;;;23.70
7389;BMP180;3735;50.136;11.062;2023-05-19T13:18:07;98593.00;;;25.00
7389;BMP180;3735;50.136;11.062;2023-05-19T13:20:38;98604.00;;;25.60
7389;BMP180;3735;50.136;11.062;2023-05-19T13:23:05;98599.00;;;25.00
7389;BMP180;3735;50.136;11.062;2023-05-19T13:25:34;98597.00;;;25.00
7389;BMP180;3735;50.136;11.062;2023-05-19T13:28:01;98586.00;;;25.50
7389;BMP180;3735;50.136;11.062;2023-05-19T13:30:34;98581.00;;;25.90
7389;BMP180;3735;50.136;11.062;2023-05-19T13:33:00;98588.00;;;26.50
7389;BMP180;3735;50.136;11.062;2023-05-19T13:35:26;98586.00;;;26.40
7389;BMP180;3735;50.136;11.062;2023-05-19T13:37:52;98583.00;;;26.30
7389;BMP180;3735;50.136;11.062;2023-05-19T13:40:18;98589.00;;;26.70
7389;BMP180;3735;50.136;11.062;2023-05-19T13:42:44;98582.00;;;26.60
7389;BMP180;3735;50.136;11.062;2023-05-19T13:45:10;98587.00;;;26.40
7389;BMP180;3735;50.136;11.062;2023-05-19T13:47:37;98582.00;;;26.30
7389;BMP180;3735;50.136;11.062;2023-05-19T13:50:04;98582.00;;;26.60
7389;BMP180;3735;50.136;11.062;2023-05-19T13:52:30;98579.00;;;27.80
7389;BMP180;3735;50.136;11.062;2023-05-19T13:54:56;98580.00;;;27.20
7389;BMP180;3735;50.136;11.062;2023-05-19T13:57:23;98592.00;;;27.00
7389;BMP180;3735;50.136;11.062;2023-05-19T13:59:50;98585.00;;;25.90
7389;BMP180;3735;50.136;11.062;2023-05-19T14:02:15;98583.00;;;24.80
7389;BMP180;3735;50.136;11.062;2023-05-19T14:04:41;98582.00;;;25.10
7389;BMP180;3735;50.136;11.062;2023-05-19T14:07:07;98548.00;;;25.70
7389;BMP180;3735;50.136;11.062;2023-05-19T14:09:35;98576.00;;;26.10
7389;BMP180;3735;50.136;11.062;2023-05-19T14:12:01;98585.00;;;25.30
7389;BMP180;3735;50.136;11.062;2023-05-19T14:14:27;98581.00;;;25.00
7389;BMP180;3735;50.136;11.062;2023-05-19T14:16:53;98579.00;;;25.00
7389;BMP180;3735;50.136;11.062;2023-05-19T14:19:19;98576.00;;;25.00
7389;BMP180;3735;50.136;11.062;2023-05-19T14:21:45;98581.00;;;24.80
7389;BMP180;3735;50.136;11.062;2023-05-19T14:24:10;98579.00;;;24.50
7389;BMP180;3735;50.136;11.062;2023-05-19T14:26:36;98579.00;;;24.50
7389;BMP180;3735;50.136;11.062;2023-05-19T14:29:02;98585.00;;;24.00
7389;BMP180;3735;50.136;11.062;2023-05-19T14:31:28;98579.00;;;23.70
7389;BMP180;3735;50.136;11.062;2023-05-19T14:33:54;98583.00;;;23.10
7389;BMP180;3735;50.136;11.062;2023-05-19T14:36:20;98583.00;;;23.10
7389;BMP180;3735;50.136;11.062;2023-05-19T14:38:45;98587.00;;;23.10
7389;BMP180;3735;50.136;11.062;2023-05-19T14:41:11;98590.00;;;22.10
7389;BMP180;3735;50.136;11.062;2023-05-19T14:43:37;98586.00;;;22.00
7389;BMP180;3735;50.136;11.062;2023-05-19T14:46:03;98582.00;;;21.90
7389;BMP180;3735;50.136;11.062;2023-05-19T14:48:29;98569.00;;;21.50
7389;BMP180;3735;50.136;11.062;2023-05-19T14:50:54;98586.00;;;21.40
7389;BMP180;3735;50.136;11.062;2023-05-19T14:53:20;98583.00;;;21.90
7389;BMP180;3735;50.136;11.062;2023-05-19T14:55:49;98586.00;;;21.80
7389;BMP180;3735;50.136;11.062;2023-05-19T14:58:15;98583.00;;;22.00
7389;BMP180;3735;50.136;11.062;2023-05-19T15:00:43;98582.00;;;22.10
7389;BMP180;3735;50.136;11.062;2023-05-19T15:03:09;98586.00;;;21.80